sensor_id;sensor_type;location;lat;lon;timestamp;P1;durP1;ratioP1;P2;durP2;ratioP2
30036;SDS011;36325;51.512;-0.382;2023-02-15T00:00:12;94.47;;;41.70;;
30036;SDS011;36325;51.512;-0.382;2023-02-15T00:02:40;93.60;;;39.75;;
30036;SDS011;36325;51.512;-0.382;2023-02-15T00:05:08;93.40;;;40.50;;
30036;SDS011;36325;51.512;-0.382;2023-02-15T00:07:37;84.18;;;40.47;;
30036;SDS011;36325;51.512;-0.382;2023-02-15T00:10:05;88.38;;;41.03;;
30036;SDS011;36325;51.512;-0.382;2023-02-15T00:12:33;78.55;;;36.47;;
30036;SDS011;36325;51.512;-0.382;2023-02-15T00:15:02;91.50;;;39.20;;
30036;SDS011;36325;51.512;-0.382;2023-02-15T00:17:31;75.05;;;36.33;;
30036;SDS011;36325;51.512;-0.382;2023-02-15T00:19:59;78.22;;;32.65;;
30036;SDS011;36325;51.512;-0.382;2023-02-15T00:22:28;76.78;;;35.38;;
30036;SDS011;36325;51.512;-0.382;2023-02-15T00:24:56;77.65;;;35.53;;
30036;SDS011;36325;51.512;-0.382;2023-02-15T00:27:24;77.50;;;35.42;;
30036;SDS011;36325;51.512;-0.382;2023-02-15T00:29:51;83.97;;;36.75;;
30036;SDS011;36325;51.512;-0.382;2023-02-15T00:32:20;68.43;;;34.42;;
30036;SDS011;36325;51.512;-0.382;2023-02-15T00:34:47;79.72;;;36.42;;
30036;SDS011;36325;51.512;-0.382;2023-02-15T00:37:15;78.40;;;35.85;;
30036;SDS011;36325;51.512;-0.382;2023-02-15T00:39:46;77.60;;;36.35;;
30036;SDS011;36325;51.512;-0.382;2023-02-15T00:42:13;59.50;;;28.98;;
30036;SDS011;36325;51.512;-0.382;2023-02-15T00:44:41;61.13;;;31.23;;
30036;SDS011;36325;51.512;-0.382;2023-02-15T00:47:09;62.38;;;30.95;;
30036;SDS011;36325;51.512;-0.382;2023-02-15T00:49:36;81.55;;;35.88;;
30036;SDS011;36325;51.512;-0.382;2023-02-15T00:52:04;85.93;;;39.95;;
30036;SDS011;36325;51.512;-0.382;2023-02-15T00:54:32;79.95;;;36.47;;
30036;SDS011;36325;51.512;-0.382;2023-02-15T00:57:03;77.95;;;38.00;;
30036;SDS011;36325;51.512;-0.382;2023-02-15T00:59:30;84.30;;;38.72;;
30036;SDS011;36325;51.512;-0.382;2023-02-15T01:01:58;74.40;;;36.22;;
30036;SDS011;36325;51.512;-0.382;2023-02-15T01:04:28;71.22;;;35.33;;
30036;SDS011;36325;51.512;-0.382;2023-02-15T01:06:56;98.55;;;42.45;;
30036;SDS011;36325;51.512;-0.382;2023-02-15T01:09:25;74.60;;;37.63;;
30036;SDS011;36325;51.512;-0.382;2023-02-15T01:11:55;84.60;;;38.00;;
30036;SDS011;36325;51.512;-0.382;2023-02-15T01:14:25;85.25;;;39.58;;
30036;SDS011;36325;51.512;-0.382;2023-02-15T01:16:53;100.28;;;47.20;;
30036;SDS011;36325;51.512;-0.382;2023-02-15T01:19:21;83.60;;;42.88;;
30036;SDS011;36325;51.512;-0.382;2023-02-15T01:21:49;90.22;;;43.08;;
30036;SDS011;36325;51.512;-0.382;2023-02-15T01:24:17;93.63;;;43.63;;
30036;SDS011;36325;51.512;-0.382;2023-02-15T01:26:46;86.25;;;42.05;;
30036;SDS011;36325;51.512;-0.382;2023-02-15T01:29:14;84.65;;;39.60;;
30036;SDS011;36325;51.512;-0.382;2023-02-15T01:31:42;98.50;;;41.90;;
30036;SDS011;36325;51.512;-0.382;2023-02-15T01:34:13;80.90;;;37.33;;
30036;SDS011;36325;51.512;-0.382;2023-02-15T01:36:42;82.47;;;35.42;;
30036;SDS011;36325;51.512;-0.382;2023-02-15T01:39:10;71.38;;;31.90;;
30036;SDS011;36325;51.512;-0.382;2023-02-15T01:41:37;76.20;;;31.83;;
30036;SDS011;36325;51.512;-0.382;2023-02-15T01:44:40;74.03;;;32.50;;
30036;SDS011;36325;51.512;-0.382;2023-02-15T01:47:16;72.95;;;32.03;;
30036;SDS011;36325;51.512;-0.382;2023-02-15T01:52:36;73.00;;;32.78;;
30036;SDS011;36325;51.512;-0.382;2023-02-15T01:55:06;69.90;;;32.83;;
30036;SDS011;36325;51.512;-0.382;2023-02-15T01:57:35;70.82;;;32.78;;
30036;SDS011;36325;51.512;-0.382;2023-02-15T02:00:04;72.20;;;34.08;;
30036;SDS011;36325;51.512;-0.382;2023-02-15T02:02:38;65.90;;;30.77;;
30036;SDS011;36325;51.512;-0.382;2023-02-15T02:05:07;68.55;;;30.90;;
30036;SDS011;36325;51.512;-0.382;2023-02-15T02:07:37;60.55;;;29.98;;
30036;SDS011;36325;51.512;-0.382;2023-02-15T02:10:09;69.55;;;31.13;;
30036;SDS011;36325;51.512;-0.382;2023-02-15T02:12:38;70.60;;;31.05;;
30036;SDS011;36325;51.512;-0.382;2023-02-15T02:15:09;71.10;;;30.40;;
30036;SDS011;36325;51.512;-0.382;2023-02-15T02:20:49;65.40;;;31.63;;
30036;SDS011;36325;51.512;-0.382;2023-02-15T02:36:58;70.63;;;33.70;;
30036;SDS011;36325;51.512;-0.382;2023-02-15T02:39:51;69.57;;;31.98;;
30036;SDS011;36325;51.512;-0.382;2023-02-15T02:42:49;66.28;;;31.13;;
30036;SDS011;36325;51.512;-0.382;2023-02-15T02:45:39;67.55;;;31.42;;
30036;SDS011;36325;51.512;-0.382;2023-02-15T02:48:21;73.35;;;31.63;;
30036;SDS011;36325;51.512;-0.382;2023-02-15T02:50:52;66.75;;;31.83;;
30036;SDS011;36325;51.512;-0.382;2023-02-15T02:53:20;67.95;;;30.35;;
30036;SDS011;36325;51.512;-0.382;2023-02-15T03:00:57;74.85;;;34.95;;
30036;SDS011;36325;51.512;-0.382;2023-02-15T03:06:24;84.93;;;35.88;;
30036;SDS011;36325;51.512;-0.382;2023-02-15T03:08:58;77.22;;;37.05;;
30036;SDS011;36325;51.512;-0.382;2023-02-15T03:12:14;74.70;;;34.72;;
30036;SDS011;36325;51.512;-0.382;2023-02-15T03:14:46;74.38;;;35.05;;
30036;SDS011;36325;51.512;-0.382;2023-02-15T03:17:19;81.35;;;36.80;;
30036;SDS011;36325;51.512;-0.382;2023-02-15T03:19:49;83.85;;;37.58;;
30036;SDS011;36325;51.512;-0.382;2023-02-15T03:22:21;91.17;;;39.70;;
30036;SDS011;36325;51.512;-0.382;2023-02-15T03:25:15;88.53;;;39.72;;
30036;SDS011;36325;51.512;-0.382;2023-02-15T03:28:09;92.82;;;41.50;;
30036;SDS011;36325;51.512;-0.382;2023-02-15T03:30:43;91.25;;;41.75;;
30036;SDS011;36325;51.512;-0.382;2023-02-15T03:33:15;89.38;;;42.75;;
30036;SDS011;36325;51.512;-0.382;2023-02-15T03:38:20;83.25;;;40.42;;
30036;SDS011;36325;51.512;-0.382;2023-02-15T03:40:53;100.82;;;43.55;;
30036;SDS011;36325;51.512;-0.382;2023-02-15T03:43:54;100.70;;;43.58;;
30036;SDS011;36325;51.512;-0.382;2023-02-15T03:46:27;96.32;;;42.60;;
30036;SDS011;36325;51.512;-0.382;2023-02-15T03:49:17;104.78;;;44.13;;
30036;SDS011;36325;51.512;-0.382;2023-02-15T03:52:10;116.72;;;45.10;;
30036;SDS011;36325;51.512;-0.382;2023-02-15T03:54:40;106.85;;;47.45;;
30036;SDS011;36325;51.512;-0.382;2023-02-15T03:57:10;103.47;;;46.05;;
30036;SDS011;36325;51.512;-0.382;2023-02-15T04:00:09;109.85;;;47.10;;
30036;SDS011;36325;51.512;-0.382;2023-02-15T04:03:17;106.97;;;45.75;;
30036;SDS011;36325;51.512;-0.382;2023-02-15T04:05:55;102.13;;;44.55;;
30036;SDS011;36325;51.512;-0.382;2023-02-15T04:08:23;103.45;;;46.47;;
30036;SDS011;36325;51.512;-0.382;2023-02-15T04:11:10;115.13;;;46.33;;
30036;SDS011;36325;51.512;-0.382;2023-02-15T04:13:38;125.50;;;51.67;;
30036;SDS011;36325;51.512;-0.382;2023-02-15T04:16:07;115.22;;;49.92;;
30036;SDS011;36325;51.512;-0.382;2023-02-15T04:18:41;118.40;;;52.00;;
30036;SDS011;36325;51.512;-0.382;2023-02-15T04:21:29;119.15;;;49.53;;
30036;SDS011;36325;51.512;-0.382;2023-02-15T04:24:16;134.13;;;56.58;;
30036;SDS011;36325;51.512;-0.382;2023-02-15T04:27:03;126.90;;;53.10;;
30036;SDS011;36325;51.512;-0.382;2023-02-15T04:29:32;111.38;;;48.88;;
30036;SDS011;36325;51.512;-0.382;2023-02-15T04:32:00;112.32;;;50.75;;
30036;SDS011;36325;51.512;-0.382;2023-02-15T04:34:29;117.53;;;48.78;;
30036;SDS011;36325;51.512;-0.382;2023-02-15T04:36:57;108.35;;;46.05;;
30036;SDS011;36325;51.512;-0.382;2023-02-15T04:39:25;115.53;;;48.83;;
30036;SDS011;36325;51.512;-0.382;2023-02-15T04:41:53;129.63;;;54.13;;
30036;SDS011;36325;51.512;-0.382;2023-02-15T04:44:20;129.15;;;56.70;;
30036;SDS011;36325;51.512;-0.382;2023-02-15T04:46:48;136.57;;;56.58;;
30036;SDS011;36325;51.512;-0.382;2023-02-15T04:49:16;145.82;;;58.35;;
30036;SDS011;36325;51.512;-0.382;2023-02-15T04:51:43;133.32;;;54.75;;
30036;SDS011;36325;51.512;-0.382;2023-02-15T04:54:11;137.45;;;53.88;;
30036;SDS011;36325;51.512;-0.382;2023-02-15T04:56:39;138.10;;;57.22;;
30036;SDS011;36325;51.512;-0.382;2023-02-15T04:59:06;130.45;;;56.65;;
30036;SDS011;36325;51.512;-0.382;2023-02-15T05:01:36;123.90;;;53.20;;
30036;SDS011;36325;51.512;-0.382;2023-02-15T05:04:04;129.43;;;55.97;;
30036;SDS011;36325;51.512;-0.382;2023-02-15T05:06:32;122.97;;;53.55;;
30036;SDS011;36325;51.512;-0.382;2023-02-15T05:08:59;126.78;;;51.92;;
30036;SDS011;36325;51.512;-0.382;2023-02-15T05:11:27;117.85;;;50.30;;
30036;SDS011;36325;51.512;-0.382;2023-02-15T05:13:56;127.63;;;54.25;;
30036;SDS011;36325;51.512;-0.382;2023-02-15T05:16:24;121.32;;;51.13;;
30036;SDS011;36325;51.512;-0.382;2023-02-15T05:18:54;106.53;;;48.58;;
30036;SDS011;36325;51.512;-0.382;2023-02-15T05:21:22;104.93;;;46.88;;
30036;SDS011;36325;51.512;-0.382;2023-02-15T05:23:56;94.60;;;44.65;;
30036;SDS011;36325;51.512;-0.382;2023-02-15T05:26:24;90.35;;;41.15;;
30036;SDS011;36325;51.512;-0.382;2023-02-15T05:29:10;94.70;;;40.95;;
30036;SDS011;36325;51.512;-0.382;2023-02-15T05:31:38;93.82;;;41.97;;
30036;SDS011;36325;51.512;-0.382;2023-02-15T05:34:06;87.10;;;38.03;;
30036;SDS011;36325;51.512;-0.382;2023-02-15T05:36:34;86.50;;;39.60;;
30036;SDS011;36325;51.512;-0.382;2023-02-15T05:39:01;92.47;;;41.67;;
30036;SDS011;36325;51.512;-0.382;2023-02-15T05:41:30;96.68;;;42.55;;
30036;SDS011;36325;51.512;-0.382;2023-02-15T05:43:57;85.00;;;41.00;;
30036;SDS011;36325;51.512;-0.382;2023-02-15T05:46:25;96.38;;;44.08;;
30036;SDS011;36325;51.512;-0.382;2023-02-15T05:48:53;101.45;;;43.83;;
30036;SDS011;36325;51.512;-0.382;2023-02-15T05:51:20;100.10;;;45.55;;
30036;SDS011;36325;51.512;-0.382;2023-02-15T05:53:47;97.22;;;43.53;;
30036;SDS011;36325;51.512;-0.382;2023-02-15T05:56:15;98.25;;;42.95;;
30036;SDS011;36325;51.512;-0.382;2023-02-15T05:58:43;101.32;;;43.63;;
30036;SDS011;36325;51.512;-0.382;2023-02-15T06:01:17;95.70;;;44.17;;
30036;SDS011;36325;51.512;-0.382;2023-02-15T06:03:46;97.50;;;44.33;;
30036;SDS011;36325;51.512;-0.382;2023-02-15T06:06:14;102.25;;;44.95;;
30036;SDS011;36325;51.512;-0.382;2023-02-15T06:08:43;93.60;;;41.10;;
30036;SDS011;36325;51.512;-0.382;2023-02-15T06:11:12;82.07;;;39.00;;
30036;SDS011;36325;51.512;-0.382;2023-02-15T06:13:40;80.03;;;38.22;;
30036;SDS011;36325;51.512;-0.382;2023-02-15T06:16:07;79.65;;;36.95;;
30036;SDS011;36325;51.512;-0.382;2023-02-15T06:18:35;89.40;;;41.10;;
30036;SDS011;36325;51.512;-0.382;2023-02-15T06:21:02;85.55;;;39.22;;
30036;SDS011;36325;51.512;-0.382;2023-02-15T06:23:29;82.95;;;38.63;;
30036;SDS011;36325;51.512;-0.382;2023-02-15T06:25:57;78.68;;;38.50;;
30036;SDS011;36325;51.512;-0.382;2023-02-15T06:28:25;81.05;;;36.70;;
30036;SDS011;36325;51.512;-0.382;2023-02-15T06:30:52;80.43;;;36.35;;
30036;SDS011;36325;51.512;-0.382;2023-02-15T06:33:20;87.65;;;39.58;;
30036;SDS011;36325;51.512;-0.382;2023-02-15T06:35:49;81.85;;;37.00;;
30036;SDS011;36325;51.512;-0.382;2023-02-15T06:38:16;88.65;;;38.80;;
30036;SDS011;36325;51.512;-0.382;2023-02-15T06:40:44;80.00;;;39.83;;
30036;SDS011;36325;51.512;-0.382;2023-02-15T06:43:11;84.40;;;36.88;;
30036;SDS011;36325;51.512;-0.382;2023-02-15T06:45:40;82.45;;;37.83;;
30036;SDS011;36325;51.512;-0.382;2023-02-15T06:48:08;85.32;;;40.13;;
30036;SDS011;36325;51.512;-0.382;2023-02-15T06:50:37;74.50;;;34.58;;
30036;SDS011;36325;51.512;-0.382;2023-02-15T06:53:05;81.00;;;38.38;;
30036;SDS011;36325;51.512;-0.382;2023-02-15T06:55:32;80.95;;;38.03;;
30036;SDS011;36325;51.512;-0.382;2023-02-15T06:57:59;82.85;;;36.40;;
30036;SDS011;36325;51.512;-0.382;2023-02-15T07:00:29;82.18;;;37.03;;
30036;SDS011;36325;51.512;-0.382;2023-02-15T07:02:57;90.15;;;38.45;;
30036;SDS011;36325;51.512;-0.382;2023-02-15T07:05:26;86.15;;;37.40;;
30036;SDS011;36325;51.512;-0.382;2023-02-15T07:07:58;95.93;;;40.10;;
30036;SDS011;36325;51.512;-0.382;2023-02-15T07:10:27;91.03;;;37.95;;
30036;SDS011;36325;51.512;-0.382;2023-02-15T07:12:55;86.65;;;40.00;;
30036;SDS011;36325;51.512;-0.382;2023-02-15T07:15:22;87.85;;;40.85;;
30036;SDS011;36325;51.512;-0.382;2023-02-15T07:17:50;92.80;;;40.08;;
30036;SDS011;36325;51.512;-0.382;2023-02-15T07:20:21;95.35;;;42.05;;
30036;SDS011;36325;51.512;-0.382;2023-02-15T07:22:50;117.63;;;51.45;;
30036;SDS011;36325;51.512;-0.382;2023-02-15T07:25:18;98.03;;;42.38;;
30036;SDS011;36325;51.512;-0.382;2023-02-15T07:27:46;89.10;;;39.17;;
30036;SDS011;36325;51.512;-0.382;2023-02-15T07:30:15;115.72;;;44.95;;
30036;SDS011;36325;51.512;-0.382;2023-02-15T07:32:44;113.30;;;46.70;;
30036;SDS011;36325;51.512;-0.382;2023-02-15T07:35:31;144.27;;;55.67;;
30036;SDS011;36325;51.512;-0.382;2023-02-15T07:38:00;154.05;;;60.00;;
30036;SDS011;36325;51.512;-0.382;2023-02-15T07:40:28;168.48;;;63.28;;
30036;SDS011;36325;51.512;-0.382;2023-02-15T07:42:57;154.98;;;58.70;;
30036;SDS011;36325;51.512;-0.382;2023-02-15T07:45:26;157.73;;;63.72;;
30036;SDS011;36325;51.512;-0.382;2023-02-15T07:47:54;171.50;;;65.55;;
30036;SDS011;36325;51.512;-0.382;2023-02-15T07:50:21;157.05;;;63.60;;
30036;SDS011;36325;51.512;-0.382;2023-02-15T07:52:49;153.90;;;65.35;;
30036;SDS011;36325;51.512;-0.382;2023-02-15T07:55:18;158.98;;;62.70;;
30036;SDS011;36325;51.512;-0.382;2023-02-15T07:57:50;155.95;;;62.63;;
30036;SDS011;36325;51.512;-0.382;2023-02-15T08:00:24;162.35;;;65.40;;
30036;SDS011;36325;51.512;-0.382;2023-02-15T08:02:54;148.38;;;60.90;;
30036;SDS011;36325;51.512;-0.382;2023-02-15T08:05:43;152.02;;;63.17;;
30036;SDS011;36325;51.512;-0.382;2023-02-15T08:08:12;149.43;;;62.13;;
30036;SDS011;36325;51.512;-0.382;2023-02-15T08:11:00;135.93;;;60.65;;
30036;SDS011;36325;51.512;-0.382;2023-02-15T08:13:53;148.88;;;60.17;;
30036;SDS011;36325;51.512;-0.382;2023-02-15T08:19:05;131.80;;;57.25;;
30036;SDS011;36325;51.512;-0.382;2023-02-15T08:21:47;132.55;;;58.38;;
30036;SDS011;36325;51.512;-0.382;2023-02-15T08:24:21;135.68;;;54.92;;
30036;SDS011;36325;51.512;-0.382;2023-02-15T08:26:49;137.85;;;56.50;;
30036;SDS011;36325;51.512;-0.382;2023-02-15T08:29:19;129.95;;;56.50;;
30036;SDS011;36325;51.512;-0.382;2023-02-15T08:31:53;138.40;;;58.30;;
30036;SDS011;36325;51.512;-0.382;2023-02-15T08:34:28;122.82;;;54.40;;
30036;SDS011;36325;51.512;-0.382;2023-02-15T08:37:00;129.77;;;54.92;;
30036;SDS011;36325;51.512;-0.382;2023-02-15T08:41:58;119.80;;;51.88;;
30036;SDS011;36325;51.512;-0.382;2023-02-15T08:44:25;113.40;;;51.30;;
30036;SDS011;36325;51.512;-0.382;2023-02-15T08:46:56;123.55;;;51.85;;
30036;SDS011;36325;51.512;-0.382;2023-02-15T08:49:33;121.63;;;51.30;;
30036;SDS011;36325;51.512;-0.382;2023-02-15T08:52:02;121.88;;;53.00;;
30036;SDS011;36325;51.512;-0.382;2023-02-15T08:54:30;116.68;;;50.33;;
30036;SDS011;36325;51.512;-0.382;2023-02-15T08:56:58;112.13;;;49.83;;
30036;SDS011;36325;51.512;-0.382;2023-02-15T08:59:26;112.03;;;49.10;;
30036;SDS011;36325;51.512;-0.382;2023-02-15T09:01:55;114.55;;;49.85;;
30036;SDS011;36325;51.512;-0.382;2023-02-15T09:04:23;111.50;;;48.83;;
30036;SDS011;36325;51.512;-0.382;2023-02-15T09:06:51;103.43;;;48.35;;
30036;SDS011;36325;51.512;-0.382;2023-02-15T09:09:19;102.93;;;49.10;;
30036;SDS011;36325;51.512;-0.382;2023-02-15T09:11:49;102.10;;;47.17;;
30036;SDS011;36325;51.512;-0.382;2023-02-15T09:14:23;111.15;;;47.97;;
30036;SDS011;36325;51.512;-0.382;2023-02-15T09:16:54;97.53;;;44.38;;
30036;SDS011;36325;51.512;-0.382;2023-02-15T09:19:22;96.40;;;45.42;;
30036;SDS011;36325;51.512;-0.382;2023-02-15T09:21:52;90.80;;;43.45;;
30036;SDS011;36325;51.512;-0.382;2023-02-15T09:24:20;87.15;;;41.58;;
30036;SDS011;36325;51.512;-0.382;2023-02-15T09:26:48;86.97;;;41.97;;
30036;SDS011;36325;51.512;-0.382;2023-02-15T09:29:16;86.90;;;42.83;;
30036;SDS011;36325;51.512;-0.382;2023-02-15T09:31:46;94.00;;;42.65;;
30036;SDS011;36325;51.512;-0.382;2023-02-15T09:34:16;84.27;;;38.27;;
30036;SDS011;36325;51.512;-0.382;2023-02-15T09:36:48;76.63;;;37.85;;
30036;SDS011;36325;51.512;-0.382;2023-02-15T09:58:32;69.93;;;33.47;;
30036;SDS011;36325;51.512;-0.382;2023-02-15T10:09:23;69.75;;;35.08;;
30036;SDS011;36325;51.512;-0.382;2023-02-15T10:14:51;60.85;;;30.80;;
30036;SDS011;36325;51.512;-0.382;2023-02-15T10:17:44;73.90;;;33.75;;
30036;SDS011;36325;51.512;-0.382;2023-02-15T10:25:51;68.03;;;32.70;;
30036;SDS011;36325;51.512;-0.382;2023-02-15T10:37:53;60.58;;;30.73;;
30036;SDS011;36325;51.512;-0.382;2023-02-15T10:48:47;55.13;;;29.27;;
30036;SDS011;36325;51.512;-0.382;2023-02-15T10:59:29;44.80;;;26.08;;
30036;SDS011;36325;51.512;-0.382;2023-02-15T11:02:10;48.63;;;26.55;;
30036;SDS011;36325;51.512;-0.382;2023-02-15T11:04:53;54.15;;;25.98;;
30036;SDS011;36325;51.512;-0.382;2023-02-15T11:07:26;55.00;;;25.75;;
30036;SDS011;36325;51.512;-0.382;2023-02-15T11:12:51;44.55;;;24.17;;
30036;SDS011;36325;51.512;-0.382;2023-02-15T11:15:41;50.05;;;25.95;;
30036;SDS011;36325;51.512;-0.382;2023-02-15T11:18:36;49.30;;;25.33;;
30036;SDS011;36325;51.512;-0.382;2023-02-15T11:21:10;56.55;;;27.15;;
30036;SDS011;36325;51.512;-0.382;2023-02-15T11:23:45;48.22;;;24.30;;
30036;SDS011;36325;51.512;-0.382;2023-02-15T11:28:57;48.15;;;22.60;;
30036;SDS011;36325;51.512;-0.382;2023-02-15T11:31:37;40.78;;;22.73;;
30036;SDS011;36325;51.512;-0.382;2023-02-15T11:34:17;41.15;;;20.98;;
30036;SDS011;36325;51.512;-0.382;2023-02-15T11:37:01;50.30;;;20.45;;
30036;SDS011;36325;51.512;-0.382;2023-02-15T11:39:37;42.85;;;20.45;;
30036;SDS011;36325;51.512;-0.382;2023-02-15T11:42:06;35.50;;;19.83;;
30036;SDS011;36325;51.512;-0.382;2023-02-15T11:47:28;40.88;;;19.48;;
30036;SDS011;36325;51.512;-0.382;2023-02-15T11:49:56;33.60;;;19.95;;
30036;SDS011;36325;51.512;-0.382;2023-02-15T11:52:24;43.63;;;18.92;;
30036;SDS011;36325;51.512;-0.382;2023-02-15T11:54:52;38.33;;;21.85;;
30036;SDS011;36325;51.512;-0.382;2023-02-15T11:57:26;40.67;;;19.92;;
30036;SDS011;36325;51.512;-0.382;2023-02-15T12:00:03;40.47;;;22.10;;
30036;SDS011;36325;51.512;-0.382;2023-02-15T12:02:43;36.15;;;19.92;;
30036;SDS011;36325;51.512;-0.382;2023-02-15T12:05:17;32.08;;;18.83;;
30036;SDS011;36325;51.512;-0.382;2023-02-15T12:07:50;44.00;;;20.92;;
30036;SDS011;36325;51.512;-0.382;2023-02-15T12:10:58;32.67;;;21.25;;
30036;SDS011;36325;51.512;-0.382;2023-02-15T12:13:20;38.53;;;19.60;;
30036;SDS011;36325;51.512;-0.382;2023-02-15T12:15:52;34.35;;;19.95;;
30036;SDS011;36325;51.512;-0.382;2023-02-15T12:23:46;35.42;;;18.55;;
30036;SDS011;36325;51.512;-0.382;2023-02-15T12:26:54;35.83;;;19.65;;
30036;SDS011;36325;51.512;-0.382;2023-02-15T12:29:17;34.40;;;18.08;;
30036;SDS011;36325;51.512;-0.382;2023-02-15T12:31:49;35.92;;;18.48;;
30036;SDS011;36325;51.512;-0.382;2023-02-15T12:36:52;30.52;;;17.42;;
30036;SDS011;36325;51.512;-0.382;2023-02-15T12:39:25;29.58;;;15.43;;
30036;SDS011;36325;51.512;-0.382;2023-02-15T12:44:33;26.15;;;14.98;;
30036;SDS011;36325;51.512;-0.382;2023-02-15T12:49:43;31.90;;;15.15;;
30036;SDS011;36325;51.512;-0.382;2023-02-15T12:52:31;24.92;;;15.32;;
30036;SDS011;36325;51.512;-0.382;2023-02-15T12:55:10;30.23;;;15.05;;
30036;SDS011;36325;51.512;-0.382;2023-02-15T13:00:46;31.70;;;14.30;;
30036;SDS011;36325;51.512;-0.382;2023-02-15T13:03:20;25.42;;;14.93;;
30036;SDS011;36325;51.512;-0.382;2023-02-15T13:05:50;22.05;;;13.68;;
30036;SDS011;36325;51.512;-0.382;2023-02-15T13:08:20;29.10;;;14.68;;
30036;SDS011;36325;51.512;-0.382;2023-02-15T13:11:05;25.33;;;14.60;;
30036;SDS011;36325;51.512;-0.382;2023-02-15T13:13:47;44.42;;;18.63;;
30036;SDS011;36325;51.512;-0.382;2023-02-15T13:16:17;26.58;;;14.70;;
30036;SDS011;36325;51.512;-0.382;2023-02-15T13:18:53;28.30;;;13.73;;
30036;SDS011;36325;51.512;-0.382;2023-02-15T13:21:23;34.58;;;15.15;;
30036;SDS011;36325;51.512;-0.382;2023-02-15T13:24:01;32.15;;;13.15;;
30036;SDS011;36325;51.512;-0.382;2023-02-15T13:26:32;29.42;;;14.60;;
30036;SDS011;36325;51.512;-0.382;2023-02-15T13:29:10;29.98;;;13.98;;
30036;SDS011;36325;51.512;-0.382;2023-02-15T13:31:44;25.35;;;13.82;;
30036;SDS011;36325;51.512;-0.382;2023-02-15T13:34:15;25.10;;;13.68;;
30036;SDS011;36325;51.512;-0.382;2023-02-15T13:39:37;29.40;;;12.35;;
30036;SDS011;36325;51.512;-0.382;2023-02-15T13:47:45;22.95;;;11.07;;
30036;SDS011;36325;51.512;-0.382;2023-02-15T13:50:43;23.73;;;11.65;;
30036;SDS011;36325;51.512;-0.382;2023-02-15T13:53:36;21.63;;;10.52;;
30036;SDS011;36325;51.512;-0.382;2023-02-15T14:12:33;16.48;;;6.57;;
30036;SDS011;36325;51.512;-0.382;2023-02-15T14:20:59;20.10;;;7.25;;
30036;SDS011;36325;51.512;-0.382;2023-02-15T14:29:14;22.20;;;7.82;;
30036;SDS011;36325;51.512;-0.382;2023-02-15T14:32:13;15.73;;;6.32;;
30036;SDS011;36325;51.512;-0.382;2023-02-15T14:34:54;16.50;;;7.00;;
30036;SDS011;36325;51.512;-0.382;2023-02-15T14:37:36;19.35;;;6.65;;
30036;SDS011;36325;51.512;-0.382;2023-02-15T14:45:45;13.75;;;6.53;;
30036;SDS011;36325;51.512;-0.382;2023-02-15T14:48:28;14.38;;;6.28;;
30036;SDS011;36325;51.512;-0.382;2023-02-15T14:50:58;18.88;;;6.97;;
30036;SDS011;36325;51.512;-0.382;2023-02-15T15:01:16;17.65;;;6.78;;
30036;SDS011;36325;51.512;-0.382;2023-02-15T15:04:10;18.35;;;6.53;;
30036;SDS011;36325;51.512;-0.382;2023-02-15T15:06:57;17.48;;;5.85;;
30036;SDS011;36325;51.512;-0.382;2023-02-15T15:09:30;12.10;;;5.55;;
30036;SDS011;36325;51.512;-0.382;2023-02-15T15:14:53;19.13;;;5.57;;
30036;SDS011;36325;51.512;-0.382;2023-02-15T15:20:12;23.73;;;6.22;;
30036;SDS011;36325;51.512;-0.382;2023-02-15T15:28:53;17.73;;;6.40;;
30036;SDS011;36325;51.512;-0.382;2023-02-15T15:34:19;14.18;;;6.00;;
30036;SDS011;36325;51.512;-0.382;2023-02-15T15:42:35;16.45;;;6.05;;
30036;SDS011;36325;51.512;-0.382;2023-02-15T15:48:33;13.63;;;5.40;;
30036;SDS011;36325;51.512;-0.382;2023-02-15T15:51:14;12.98;;;5.28;;
30036;SDS011;36325;51.512;-0.382;2023-02-15T15:53:47;19.75;;;6.03;;
30036;SDS011;36325;51.512;-0.382;2023-02-15T15:56:21;14.48;;;5.30;;
30036;SDS011;36325;51.512;-0.382;2023-02-15T15:58:59;13.45;;;5.05;;
30036;SDS011;36325;51.512;-0.382;2023-02-15T16:01:42;22.63;;;5.63;;
30036;SDS011;36325;51.512;-0.382;2023-02-15T16:04:37;16.95;;;5.22;;
30036;SDS011;36325;51.512;-0.382;2023-02-15T16:07:20;24.30;;;5.97;;
30036;SDS011;36325;51.512;-0.382;2023-02-15T16:12:21;12.05;;;5.07;;
30036;SDS011;36325;51.512;-0.382;2023-02-15T16:14:50;12.75;;;4.72;;
30036;SDS011;36325;51.512;-0.382;2023-02-15T16:17:26;18.13;;;5.55;;
30036;SDS011;36325;51.512;-0.382;2023-02-15T16:20:03;21.55;;;5.88;;
30036;SDS011;36325;51.512;-0.382;2023-02-15T16:22:46;10.70;;;5.22;;
30036;SDS011;36325;51.512;-0.382;2023-02-15T16:28:07;28.42;;;5.65;;
30036;SDS011;36325;51.512;-0.382;2023-02-15T16:30:54;20.83;;;5.65;;
30036;SDS011;36325;51.512;-0.382;2023-02-15T16:33:36;24.70;;;7.25;;
30036;SDS011;36325;51.512;-0.382;2023-02-15T16:36:05;17.27;;;5.70;;
30036;SDS011;36325;51.512;-0.382;2023-02-15T16:41:11;18.92;;;5.45;;
30036;SDS011;36325;51.512;-0.382;2023-02-15T16:43:42;15.77;;;5.82;;
30036;SDS011;36325;51.512;-0.382;2023-02-15T16:46:15;13.60;;;6.07;;
30036;SDS011;36325;51.512;-0.382;2023-02-15T16:48:56;23.90;;;6.78;;
30036;SDS011;36325;51.512;-0.382;2023-02-15T16:51:28;11.68;;;6.00;;
30036;SDS011;36325;51.512;-0.382;2023-02-15T16:54:08;16.33;;;6.20;;
30036;SDS011;36325;51.512;-0.382;2023-02-15T16:56:51;17.67;;;5.35;;
30036;SDS011;36325;51.512;-0.382;2023-02-15T17:01:56;12.18;;;4.68;;
30036;SDS011;36325;51.512;-0.382;2023-02-15T17:04:27;13.85;;;4.28;;
30036;SDS011;36325;51.512;-0.382;2023-02-15T17:06:57;14.07;;;5.10;;
30036;SDS011;36325;51.512;-0.382;2023-02-15T17:09:33;26.27;;;5.60;;
30036;SDS011;36325;51.512;-0.382;2023-02-15T17:12:01;19.38;;;5.03;;
30036;SDS011;36325;51.512;-0.382;2023-02-15T17:14:42;13.95;;;5.03;;
30036;SDS011;36325;51.512;-0.382;2023-02-15T17:17:12;16.25;;;5.57;;
30036;SDS011;36325;51.512;-0.382;2023-02-15T17:19:50;22.48;;;6.20;;
30036;SDS011;36325;51.512;-0.382;2023-02-15T17:22:22;24.10;;;6.63;;
30036;SDS011;36325;51.512;-0.382;2023-02-15T17:24:57;16.10;;;6.82;;
30036;SDS011;36325;51.512;-0.382;2023-02-15T17:27:27;22.52;;;8.60;;
30036;SDS011;36325;51.512;-0.382;2023-02-15T17:32:28;23.95;;;7.78;;
30036;SDS011;36325;51.512;-0.382;2023-02-15T17:37:47;26.58;;;9.05;;
30036;SDS011;36325;51.512;-0.382;2023-02-15T17:40:20;28.80;;;9.73;;
30036;SDS011;36325;51.512;-0.382;2023-02-15T17:42:48;23.25;;;9.70;;
30036;SDS011;36325;51.512;-0.382;2023-02-15T17:45:15;26.95;;;10.25;;
30036;SDS011;36325;51.512;-0.382;2023-02-15T17:47:42;24.25;;;9.38;;
30036;SDS011;36325;51.512;-0.382;2023-02-15T17:50:15;23.10;;;9.90;;
30036;SDS011;36325;51.512;-0.382;2023-02-15T17:52:51;16.48;;;8.40;;
30036;SDS011;36325;51.512;-0.382;2023-02-15T17:55:20;18.13;;;8.80;;
30036;SDS011;36325;51.512;-0.382;2023-02-15T17:58:06;25.10;;;9.18;;
30036;SDS011;36325;51.512;-0.382;2023-02-15T18:00:49;21.70;;;8.38;;
30036;SDS011;36325;51.512;-0.382;2023-02-15T18:03:43;23.45;;;8.13;;
30036;SDS011;36325;51.512;-0.382;2023-02-15T18:06:31;18.53;;;8.67;;
30036;SDS011;36325;51.512;-0.382;2023-02-15T18:09:19;21.52;;;8.75;;
30036;SDS011;36325;51.512;-0.382;2023-02-15T18:12:23;26.23;;;9.38;;
30036;SDS011;36325;51.512;-0.382;2023-02-15T18:14:53;25.27;;;8.90;;